METAR Data
IDs: Format: Raw Decoded Include TAF

Data at: 1756 UTC 16 Oct 2021

KLVJ 161753Z AUTO 36014G20KT 10SM CLR 22/07 A3027 RMK AO2 SLP250 T02220067 10228 20172 58008
KLVJ 161653Z AUTO 04016G22KT 10SM CLR 22/07 A3029 RMK AO2 SLP255 T02170067
KLVJ 161553Z AUTO 02015G23KT 10SM CLR 21/08 A3029 RMK AO2 PK WND 04026/1500 SLP257 T02060078
KLVJ 161453Z AUTO 04012G24KT 10SM CLR 19/08 A3030 RMK AO2 PK WND 04028/1434 SLP258 T01890083 51021
KLVJ 161353Z AUTO 03014G20KT 10SM CLR 18/09 A3028 RMK AO2 SLP252 T01780094
KLVJ 161253Z AUTO 02012G21KT 10SM CLR 17/09 A3026 RMK AO2 SLP244 T01720094
KLVJ 161153Z AUTO 02014G21KT 10SM CLR 18/09 A3023 RMK AO2 SLP237 70001 T01780089 10228 20178 53027
KLVJ 161053Z AUTO 02012G23KT 10SM CLR 18/09 A3021 RMK AO2 PK WND 02027/1018 SLP228 T01830089
KLVJ 160953Z AUTO 02013G24KT 10SM CLR 19/09 A3018 RMK AO2 PK WND 03029/0941 SLP218 T01890089
KLVJ 160853Z AUTO 01015G26KT 10SM CLR 20/08 A3015 RMK AO2 PK WND 02027/0835 SLP210 T02000083 51013
KLVJ 160753Z AUTO 36012G20KT 10SM CLR 21/12 A3014 RMK AO2 SLP206 T02060117
KLVJ 160653Z AUTO 36011G22KT 10SM CLR 22/14 A3013 RMK AO2 SLP203 T02170139
KLVJ 160553Z AUTO 36015G25KT 10SM CLR 23/16 A3012 RMK AO2 SLP197 T02280156 10272 20228 403330228 51026
KLVJ 160453Z AUTO 35012G23KT 10SM CLR 24/17 A3010 RMK AO2 SLP193 T02390167
KLVJ 160353Z AUTO 36012G22KT 10SM CLR 26/18 A3008 RMK AO2 SLP184 T02560178
KLVJ 160253Z AUTO 35008KT 10SM BKN039 BKN047 27/20 A3004 RMK AO2 SLP171 T02720200 53031
KLVJ 160153Z AUTO 27004KT 10SM BKN032 OVC041 26/23 A3000 RMK AO2 SLP158 T02610228
KLVJ 160053Z AUTO 00000KT 10SM FEW046 SCT065 26/22 A2996 RMK AO2 SLP145 T02560217
KLVJ 152353Z AUTO 16003KT 10SM CLR 27/22 A2995 RMK AO2 SLP140 60000 T02720217 10333 20272 53013
KLVJ 152253Z AUTO 18005KT 10SM SCT120 29/22 A2994 RMK AO2 LTG DSNT NE SLP136 T02940222
KLVJ 152228Z AUTO 11004KT 10SM FEW120 31/21 A2992 RMK AO2 LTG DSNT NE-S T03060211
KLVJ 152153Z AUTO 34008KT 10SM VCTS FEW110 31/21 A2990 RMK AO2 LTG DSNT ALQDS RAB14E31 SLP124 P0000 T03110211
KLVJ 152115Z AUTO 32009G20KT 10SM -RA SCT045 BKN070 BKN110 28/22 A2992 RMK AO2 LTG DSNT N RAB14 P0000 T02780217
KLVJ 152053Z AUTO 27006KT 10SM VCTS FEW047 33/22 A2991 RMK AO2 LTG DSNT N AND NW SLP128 T03280222 55015
KLVJ 152044Z AUTO 26005KT 10SM VCTS CLR 33/22 A2991 RMK AO2 LTG DSNT NW T03330222
KLVJ 151953Z AUTO VRB03KT 10SM CLR 33/23 A2991 RMK AO2 LTG DSNT NW SLP127 T03280228
KLVJ 151853Z AUTO VRB03KT 10SM BKN039 32/23 A2993 RMK AO2 SLP135 T03170228
KLVJ 151753Z AUTO 00000KT 10SM FEW030 FEW055 SCT085 31/26 A2995 RMK AO2 RAB20E45 SLP142 P0001 60001 T03060256 10317 20250 58003
KLVJ 151653Z AUTO 19005KT 10SM FEW027 31/23 A2997 RMK AO2 SLP147 T03060233
KLVJ 151553Z AUTO VRB04KT 10SM FEW020 BKN034 BKN046 29/23 A2997 RMK AO2 SLP149 T02890233
KLVJ 151453Z AUTO 19005KT 10SM FEW013 OVC055 28/25 A2996 RMK AO2 SLP145 T02830250 53018
KLVJ 151353Z AUTO 17003KT 10SM FEW019 OVC050 26/25 A2994 RMK AO2 SLP138 T02610250
KLVJ 151253Z AUTO 9SM OVC050 25/24 A2992 RMK AO2 SLP130 T02500239
KLVJ 151153Z AUTO 10SM OVC050 25/24 A2991 RMK AO2 SLP127 70009 T02500239 10256 20239 53008
KLVJ 151053Z AUTO 9SM OVC050 25/24 A2989 RMK AO2 SLP122 T02500239
KLVJ 150953Z AUTO 9SM BKN050 24/23 A2989 RMK AO2 SLP120 T02440233
KLVJ 150853Z AUTO 9SM CLR 25/24 A2988 RMK AO2 SLP118 T02500239 58003
KLVJ 150753Z AUTO 7SM CLR 25/24 A2989 RMK AO2 SLP122 T02500244
KLVJ 150653Z AUTO 8SM CLR 26/24 A2989 RMK AO2 SLP122 T02560244